sensor_id;sensor_type;location;lat;lon;timestamp;P1;durP1;ratioP1;P2;durP2;ratioP2
10645;SDS011;5371;49.782;9.932;2023-11-19T00:02:25;10.87;;;6.70;;
10645;SDS011;5371;49.782;9.932;2023-11-19T00:04:52;7.73;;;6.60;;
10645;SDS011;5371;49.782;9.932;2023-11-19T00:07:19;9.73;;;6.60;;
10645;SDS011;5371;49.782;9.932;2023-11-19T00:09:46;9.73;;;7.10;;
10645;SDS011;5371;49.782;9.932;2023-11-19T00:12:15;10.57;;;6.37;;
10645;SDS011;5371;49.782;9.932;2023-11-19T00:14:42;9.80;;;6.30;;
10645;SDS011;5371;49.782;9.932;2023-11-19T00:17:09;9.00;;;6.53;;
10645;SDS011;5371;49.782;9.932;2023-11-19T00:19:36;10.03;;;6.60;;
10645;SDS011;5371;49.782;9.932;2023-11-19T00:22:03;10.13;;;6.80;;
10645;SDS011;5371;49.782;9.932;2023-11-19T00:24:30;8.40;;;6.47;;
10645;SDS011;5371;49.782;9.932;2023-11-19T00:26:57;8.50;;;5.93;;
10645;SDS011;5371;49.782;9.932;2023-11-19T00:29:25;9.70;;;6.20;;
10645;SDS011;5371;49.782;9.932;2023-11-19T00:31:52;7.80;;;6.03;;
10645;SDS011;5371;49.782;9.932;2023-11-19T00:34:19;11.70;;;6.33;;
10645;SDS011;5371;49.782;9.932;2023-11-19T00:36:48;12.13;;;6.27;;
10645;SDS011;5371;49.782;9.932;2023-11-19T00:39:15;10.27;;;6.23;;
10645;SDS011;5371;49.782;9.932;2023-11-19T00:41:43;9.47;;;6.03;;
10645;SDS011;5371;49.782;9.932;2023-11-19T00:44:11;8.80;;;6.47;;
10645;SDS011;5371;49.782;9.932;2023-11-19T00:46:40;11.27;;;6.93;;
10645;SDS011;5371;49.782;9.932;2023-11-19T00:49:09;8.87;;;6.20;;
10645;SDS011;5371;49.782;9.932;2023-11-19T00:51:38;7.83;;;5.80;;
10645;SDS011;5371;49.782;9.932;2023-11-19T00:54:05;9.67;;;6.80;;
10645;SDS011;5371;49.782;9.932;2023-11-19T00:56:32;8.57;;;6.03;;
10645;SDS011;5371;49.782;9.932;2023-11-19T00:59:02;12.57;;;6.57;;
10645;SDS011;5371;49.782;9.932;2023-11-19T01:01:29;11.50;;;6.57;;
10645;SDS011;5371;49.782;9.932;2023-11-19T01:03:57;8.93;;;6.00;;
10645;SDS011;5371;49.782;9.932;2023-11-19T01:06:28;9.40;;;6.23;;
10645;SDS011;5371;49.782;9.932;2023-11-19T01:08:55;9.63;;;5.97;;
10645;SDS011;5371;49.782;9.932;2023-11-19T01:11:23;11.20;;;6.27;;
10645;SDS011;5371;49.782;9.932;2023-11-19T01:13:51;9.07;;;6.50;;
10645;SDS011;5371;49.782;9.932;2023-11-19T01:16:18;8.30;;;6.40;;
10645;SDS011;5371;49.782;9.932;2023-11-19T01:18:46;9.67;;;6.37;;
10645;SDS011;5371;49.782;9.932;2023-11-19T01:21:15;10.17;;;6.93;;
10645;SDS011;5371;49.782;9.932;2023-11-19T01:23:42;8.73;;;6.23;;
10645;SDS011;5371;49.782;9.932;2023-11-19T01:26:10;12.67;;;6.47;;
10645;SDS011;5371;49.782;9.932;2023-11-19T01:28:37;11.60;;;7.27;;
10645;SDS011;5371;49.782;9.932;2023-11-19T01:31:10;10.87;;;7.13;;
10645;SDS011;5371;49.782;9.932;2023-11-19T01:33:38;14.07;;;7.83;;
10645;SDS011;5371;49.782;9.932;2023-11-19T01:36:05;9.87;;;7.07;;
10645;SDS011;5371;49.782;9.932;2023-11-19T01:38:35;9.83;;;6.37;;
10645;SDS011;5371;49.782;9.932;2023-11-19T01:41:03;8.90;;;6.93;;
10645;SDS011;5371;49.782;9.932;2023-11-19T01:43:30;9.53;;;7.13;;
10645;SDS011;5371;49.782;9.932;2023-11-19T01:45:59;8.83;;;6.40;;
10645;SDS011;5371;49.782;9.932;2023-11-19T01:48:27;12.10;;;6.87;;
10645;SDS011;5371;49.782;9.932;2023-11-19T01:50:54;8.77;;;6.00;;
10645;SDS011;5371;49.782;9.932;2023-11-19T01:53:22;8.50;;;6.97;;
10645;SDS011;5371;49.782;9.932;2023-11-19T01:55:51;7.40;;;5.97;;
10645;SDS011;5371;49.782;9.932;2023-11-19T01:58:19;9.30;;;6.10;;
10645;SDS011;5371;49.782;9.932;2023-11-19T02:00:46;7.57;;;6.03;;
10645;SDS011;5371;49.782;9.932;2023-11-19T02:03:14;8.93;;;6.90;;
10645;SDS011;5371;49.782;9.932;2023-11-19T02:05:41;9.17;;;6.20;;
10645;SDS011;5371;49.782;9.932;2023-11-19T02:08:08;9.87;;;6.50;;
10645;SDS011;5371;49.782;9.932;2023-11-19T02:10:36;10.10;;;7.20;;
10645;SDS011;5371;49.782;9.932;2023-11-19T02:13:05;11.97;;;7.53;;
10645;SDS011;5371;49.782;9.932;2023-11-19T02:15:32;8.53;;;6.60;;
10645;SDS011;5371;49.782;9.932;2023-11-19T02:20:47;6.93;;;5.63;;
10645;SDS011;5371;49.782;9.932;2023-11-19T02:23:15;6.63;;;4.87;;
10645;SDS011;5371;49.782;9.932;2023-11-19T02:25:43;3.53;;;3.20;;
10645;SDS011;5371;49.782;9.932;2023-11-19T02:28:16;3.70;;;3.10;;
10645;SDS011;5371;49.782;9.932;2023-11-19T02:30:43;3.97;;;3.20;;
10645;SDS011;5371;49.782;9.932;2023-11-19T02:33:11;5.23;;;3.20;;
10645;SDS011;5371;49.782;9.932;2023-11-19T02:35:38;3.20;;;2.90;;
10645;SDS011;5371;49.782;9.932;2023-11-19T02:38:06;3.87;;;2.80;;
10645;SDS011;5371;49.782;9.932;2023-11-19T02:40:33;4.50;;;2.60;;
10645;SDS011;5371;49.782;9.932;2023-11-19T02:43:01;3.30;;;3.00;;
10645;SDS011;5371;49.782;9.932;2023-11-19T02:45:31;3.47;;;2.67;;
10645;SDS011;5371;49.782;9.932;2023-11-19T02:47:58;3.73;;;2.90;;
10645;SDS011;5371;49.782;9.932;2023-11-19T02:50:27;3.47;;;2.40;;
10645;SDS011;5371;49.782;9.932;2023-11-19T02:52:55;2.93;;;2.50;;
10645;SDS011;5371;49.782;9.932;2023-11-19T02:55:22;3.37;;;2.50;;
10645;SDS011;5371;49.782;9.932;2023-11-19T02:57:50;4.47;;;2.80;;
10645;SDS011;5371;49.782;9.932;2023-11-19T03:00:19;6.07;;;2.63;;
10645;SDS011;5371;49.782;9.932;2023-11-19T03:02:55;4.80;;;3.37;;
10645;SDS011;5371;49.782;9.932;2023-11-19T03:05:25;5.27;;;2.23;;
10645;SDS011;5371;49.782;9.932;2023-11-19T03:07:55;2.37;;;2.17;;
10645;SDS011;5371;49.782;9.932;2023-11-19T03:10:23;6.43;;;4.53;;
10645;SDS011;5371;49.782;9.932;2023-11-19T03:12:51;2.40;;;2.20;;
10645;SDS011;5371;49.782;9.932;2023-11-19T03:15:20;2.60;;;2.10;;
10645;SDS011;5371;49.782;9.932;2023-11-19T03:17:47;3.80;;;2.20;;
10645;SDS011;5371;49.782;9.932;2023-11-19T03:20:17;2.23;;;2.00;;
10645;SDS011;5371;49.782;9.932;2023-11-19T03:22:44;2.27;;;2.07;;
10645;SDS011;5371;49.782;9.932;2023-11-19T03:25:12;2.53;;;2.20;;
10645;SDS011;5371;49.782;9.932;2023-11-19T03:27:39;2.43;;;1.43;;
10645;SDS011;5371;49.782;9.932;2023-11-19T03:30:08;2.40;;;1.90;;
10645;SDS011;5371;49.782;9.932;2023-11-19T03:32:36;2.47;;;1.67;;
10645;SDS011;5371;49.782;9.932;2023-11-19T03:35:04;2.80;;;1.77;;
10645;SDS011;5371;49.782;9.932;2023-11-19T03:37:35;2.47;;;2.10;;
10645;SDS011;5371;49.782;9.932;2023-11-19T03:40:03;2.77;;;2.27;;
10645;SDS011;5371;49.782;9.932;2023-11-19T03:42:32;4.10;;;2.13;;
10645;SDS011;5371;49.782;9.932;2023-11-19T03:44:59;2.20;;;2.00;;
10645;SDS011;5371;49.782;9.932;2023-11-19T03:47:29;2.57;;;1.87;;
10645;SDS011;5371;49.782;9.932;2023-11-19T03:49:56;2.87;;;2.20;;
10645;SDS011;5371;49.782;9.932;2023-11-19T03:52:24;2.70;;;2.10;;
10645;SDS011;5371;49.782;9.932;2023-11-19T03:54:53;3.07;;;1.90;;
10645;SDS011;5371;49.782;9.932;2023-11-19T03:57:21;2.00;;;1.30;;
10645;SDS011;5371;49.782;9.932;2023-11-19T03:59:48;3.37;;;1.53;;
10645;SDS011;5371;49.782;9.932;2023-11-19T04:02:15;1.90;;;1.70;;
10645;SDS011;5371;49.782;9.932;2023-11-19T04:04:42;2.57;;;1.70;;
10645;SDS011;5371;49.782;9.932;2023-11-19T04:07:09;1.70;;;1.50;;
10645;SDS011;5371;49.782;9.932;2023-11-19T04:09:36;1.77;;;1.67;;
10645;SDS011;5371;49.782;9.932;2023-11-19T04:12:05;2.73;;;1.80;;
10645;SDS011;5371;49.782;9.932;2023-11-19T04:14:33;2.00;;;1.70;;
10645;SDS011;5371;49.782;9.932;2023-11-19T04:17:01;1.70;;;1.60;;
10645;SDS011;5371;49.782;9.932;2023-11-19T04:19:28;2.13;;;1.57;;
10645;SDS011;5371;49.782;9.932;2023-11-19T04:21:56;1.37;;;1.20;;
10645;SDS011;5371;49.782;9.932;2023-11-19T04:24:23;1.03;;;0.93;;
10645;SDS011;5371;49.782;9.932;2023-11-19T04:26:50;1.37;;;1.10;;
10645;SDS011;5371;49.782;9.932;2023-11-19T04:29:19;1.30;;;1.00;;
10645;SDS011;5371;49.782;9.932;2023-11-19T04:31:46;2.10;;;0.90;;
10645;SDS011;5371;49.782;9.932;2023-11-19T04:34:14;1.37;;;1.00;;
10645;SDS011;5371;49.782;9.932;2023-11-19T04:36:42;1.00;;;0.93;;
10645;SDS011;5371;49.782;9.932;2023-11-19T04:39:09;2.50;;;0.90;;
10645;SDS011;5371;49.782;9.932;2023-11-19T04:41:45;0.90;;;0.90;;
10645;SDS011;5371;49.782;9.932;2023-11-19T04:44:13;0.97;;;0.90;;
10645;SDS011;5371;49.782;9.932;2023-11-19T04:46:42;1.87;;;0.90;;
10645;SDS011;5371;49.782;9.932;2023-11-19T04:49:12;1.10;;;1.00;;
10645;SDS011;5371;49.782;9.932;2023-11-19T04:51:40;1.73;;;0.97;;
10645;SDS011;5371;49.782;9.932;2023-11-19T04:54:07;2.57;;;1.10;;
10645;SDS011;5371;49.782;9.932;2023-11-19T04:56:35;1.63;;;1.00;;
10645;SDS011;5371;49.782;9.932;2023-11-19T04:59:03;1.00;;;0.97;;
10645;SDS011;5371;49.782;9.932;2023-11-19T05:01:31;1.17;;;1.07;;
10645;SDS011;5371;49.782;9.932;2023-11-19T05:04:00;1.20;;;1.10;;
10645;SDS011;5371;49.782;9.932;2023-11-19T05:06:28;1.03;;;1.00;;
10645;SDS011;5371;49.782;9.932;2023-11-19T05:08:55;1.37;;;1.00;;
10645;SDS011;5371;49.782;9.932;2023-11-19T05:11:23;1.33;;;0.90;;
10645;SDS011;5371;49.782;9.932;2023-11-19T05:13:49;1.03;;;0.93;;
10645;SDS011;5371;49.782;9.932;2023-11-19T05:16:16;1.10;;;1.00;;
10645;SDS011;5371;49.782;9.932;2023-11-19T05:18:44;1.20;;;1.10;;
10645;SDS011;5371;49.782;9.932;2023-11-19T05:21:12;1.20;;;1.10;;
10645;SDS011;5371;49.782;9.932;2023-11-19T05:23:39;2.10;;;1.00;;
10645;SDS011;5371;49.782;9.932;2023-11-19T05:26:07;1.00;;;0.97;;
10645;SDS011;5371;49.782;9.932;2023-11-19T05:28:34;1.20;;;1.10;;
10645;SDS011;5371;49.782;9.932;2023-11-19T05:31:02;1.40;;;1.20;;
10645;SDS011;5371;49.782;9.932;2023-11-19T05:33:29;1.30;;;1.10;;
10645;SDS011;5371;49.782;9.932;2023-11-19T05:35:56;2.77;;;1.10;;
10645;SDS011;5371;49.782;9.932;2023-11-19T05:38:25;1.20;;;1.10;;
10645;SDS011;5371;49.782;9.932;2023-11-19T05:40:52;1.20;;;1.10;;
10645;SDS011;5371;49.782;9.932;2023-11-19T05:43:19;1.37;;;1.00;;
10645;SDS011;5371;49.782;9.932;2023-11-19T05:45:46;1.50;;;1.17;;
10645;SDS011;5371;49.782;9.932;2023-11-19T05:48:13;1.10;;;1.00;;
10645;SDS011;5371;49.782;9.932;2023-11-19T05:50:40;1.50;;;1.03;;
10645;SDS011;5371;49.782;9.932;2023-11-19T05:53:07;2.07;;;1.00;;
10645;SDS011;5371;49.782;9.932;2023-11-19T05:55:37;0.80;;;0.80;;
10645;SDS011;5371;49.782;9.932;2023-11-19T05:58:12;1.50;;;1.00;;
10645;SDS011;5371;49.782;9.932;2023-11-19T06:00:38;1.50;;;1.10;;
10645;SDS011;5371;49.782;9.932;2023-11-19T06:03:05;1.10;;;1.00;;
10645;SDS011;5371;49.782;9.932;2023-11-19T06:05:33;1.50;;;1.00;;
10645;SDS011;5371;49.782;9.932;2023-11-19T06:08:01;1.03;;;0.90;;
10645;SDS011;5371;49.782;9.932;2023-11-19T06:10:28;1.25;;;0.70;;
10645;SDS011;5371;49.782;9.932;2023-11-19T06:12:59;0.93;;;0.80;;
10645;SDS011;5371;49.782;9.932;2023-11-19T06:15:26;0.90;;;0.90;;
10645;SDS011;5371;49.782;9.932;2023-11-19T06:17:53;1.00;;;0.90;;
10645;SDS011;5371;49.782;9.932;2023-11-19T06:20:22;2.23;;;1.00;;
10645;SDS011;5371;49.782;9.932;2023-11-19T06:22:49;0.80;;;0.80;;
10645;SDS011;5371;49.782;9.932;2023-11-19T06:25:16;1.10;;;0.90;;
10645;SDS011;5371;49.782;9.932;2023-11-19T06:27:44;1.73;;;0.90;;
10645;SDS011;5371;49.782;9.932;2023-11-19T06:30:12;1.10;;;1.00;;
10645;SDS011;5371;49.782;9.932;2023-11-19T06:32:40;1.40;;;1.00;;
10645;SDS011;5371;49.782;9.932;2023-11-19T06:35:07;0.98;;;0.90;;
10645;SDS011;5371;49.782;9.932;2023-11-19T06:37:35;0.87;;;0.87;;
10645;SDS011;5371;49.782;9.932;2023-11-19T06:40:02;1.85;;;1.10;;
10645;SDS011;5371;49.782;9.932;2023-11-19T06:42:30;1.15;;;1.05;;
10645;SDS011;5371;49.782;9.932;2023-11-19T06:44:57;1.33;;;1.10;;
10645;SDS011;5371;49.782;9.932;2023-11-19T06:47:26;2.00;;;1.03;;
10645;SDS011;5371;49.782;9.932;2023-11-19T06:49:53;1.23;;;0.90;;
10645;SDS011;5371;49.782;9.932;2023-11-19T06:52:20;1.43;;;1.10;;
10645;SDS011;5371;49.782;9.932;2023-11-19T06:54:47;1.25;;;1.15;;
10645;SDS011;5371;49.782;9.932;2023-11-19T06:57:14;1.63;;;1.00;;
10645;SDS011;5371;49.782;9.932;2023-11-19T06:59:42;1.50;;;1.10;;
10645;SDS011;5371;49.782;9.932;2023-11-19T07:02:09;2.20;;;1.40;;
10645;SDS011;5371;49.782;9.932;2023-11-19T07:04:37;1.30;;;1.20;;
10645;SDS011;5371;49.782;9.932;2023-11-19T07:07:04;1.20;;;1.10;;
10645;SDS011;5371;49.782;9.932;2023-11-19T07:09:31;1.35;;;1.25;;
10645;SDS011;5371;49.782;9.932;2023-11-19T07:11:59;1.45;;;1.25;;
10645;SDS011;5371;49.782;9.932;2023-11-19T07:14:27;1.40;;;1.30;;
10645;SDS011;5371;49.782;9.932;2023-11-19T07:16:54;1.63;;;1.10;;
10645;SDS011;5371;49.782;9.932;2023-11-19T07:19:21;2.23;;;1.20;;
10645;SDS011;5371;49.782;9.932;2023-11-19T07:21:49;1.47;;;1.37;;
10645;SDS011;5371;49.782;9.932;2023-11-19T07:24:16;1.10;;;1.00;;
10645;SDS011;5371;49.782;9.932;2023-11-19T07:26:43;1.20;;;1.10;;
10645;SDS011;5371;49.782;9.932;2023-11-19T07:29:10;1.10;;;1.00;;
10645;SDS011;5371;49.782;9.932;2023-11-19T07:31:37;1.57;;;1.10;;
10645;SDS011;5371;49.782;9.932;2023-11-19T07:34:04;1.00;;;0.98;;
10645;SDS011;5371;49.782;9.932;2023-11-19T07:36:32;1.37;;;1.00;;
10645;SDS011;5371;49.782;9.932;2023-11-19T07:39:00;3.05;;;1.20;;
10645;SDS011;5371;49.782;9.932;2023-11-19T07:41:30;0.93;;;0.88;;
10645;SDS011;5371;49.782;9.932;2023-11-19T07:43:58;1.10;;;1.00;;
10645;SDS011;5371;49.782;9.932;2023-11-19T07:46:25;2.78;;;1.00;;
10645;SDS011;5371;49.782;9.932;2023-11-19T07:48:52;1.00;;;0.90;;
10645;SDS011;5371;49.782;9.932;2023-11-19T07:51:19;1.53;;;0.90;;
10645;SDS011;5371;49.782;9.932;2023-11-19T07:53:47;0.90;;;0.90;;
10645;SDS011;5371;49.782;9.932;2023-11-19T07:56:15;1.97;;;1.10;;
10645;SDS011;5371;49.782;9.932;2023-11-19T07:58:43;1.67;;;0.90;;
10645;SDS011;5371;49.782;9.932;2023-11-19T08:01:10;2.73;;;1.00;;
10645;SDS011;5371;49.782;9.932;2023-11-19T08:03:37;0.77;;;0.77;;
10645;SDS011;5371;49.782;9.932;2023-11-19T08:06:04;1.08;;;0.98;;
10645;SDS011;5371;49.782;9.932;2023-11-19T08:08:32;1.10;;;1.00;;
10645;SDS011;5371;49.782;9.932;2023-11-19T08:11:00;2.83;;;1.17;;
10645;SDS011;5371;49.782;9.932;2023-11-19T08:13:30;1.05;;;1.00;;
10645;SDS011;5371;49.782;9.932;2023-11-19T08:15:57;1.48;;;1.30;;
10645;SDS011;5371;49.782;9.932;2023-11-19T08:18:24;1.20;;;1.10;;
10645;SDS011;5371;49.782;9.932;2023-11-19T08:20:51;2.20;;;1.30;;
10645;SDS011;5371;49.782;9.932;2023-11-19T08:23:19;1.52;;;1.35;;
10645;SDS011;5371;49.782;9.932;2023-11-19T08:25:46;1.40;;;1.23;;
10645;SDS011;5371;49.782;9.932;2023-11-19T08:28:13;1.70;;;1.30;;
10645;SDS011;5371;49.782;9.932;2023-11-19T08:30:41;1.77;;;1.50;;
10645;SDS011;5371;49.782;9.932;2023-11-19T08:33:09;3.15;;;1.45;;
10645;SDS011;5371;49.782;9.932;2023-11-19T08:35:36;2.78;;;1.70;;
10645;SDS011;5371;49.782;9.932;2023-11-19T08:38:05;1.92;;;1.63;;
10645;SDS011;5371;49.782;9.932;2023-11-19T08:40:32;2.05;;;1.50;;
10645;SDS011;5371;49.782;9.932;2023-11-19T08:42:59;2.45;;;1.60;;
10645;SDS011;5371;49.782;9.932;2023-11-19T08:45:26;2.33;;;1.60;;
10645;SDS011;5371;49.782;9.932;2023-11-19T08:47:55;2.65;;;1.80;;
10645;SDS011;5371;49.782;9.932;2023-11-19T08:50:22;4.72;;;2.22;;
10645;SDS011;5371;49.782;9.932;2023-11-19T08:52:49;2.70;;;1.40;;
10645;SDS011;5371;49.782;9.932;2023-11-19T08:55:16;4.03;;;1.48;;
10645;SDS011;5371;49.782;9.932;2023-11-19T08:57:43;1.70;;;1.60;;
10645;SDS011;5371;49.782;9.932;2023-11-19T09:00:10;5.25;;;1.65;;
10645;SDS011;5371;49.782;9.932;2023-11-19T09:02:40;2.13;;;1.40;;
10645;SDS011;5371;49.782;9.932;2023-11-19T09:05:09;2.50;;;1.60;;
10645;SDS011;5371;49.782;9.932;2023-11-19T09:07:37;2.40;;;1.50;;
10645;SDS011;5371;49.782;9.932;2023-11-19T09:10:04;1.30;;;1.20;;
10645;SDS011;5371;49.782;9.932;2023-11-19T09:12:34;2.45;;;1.58;;
10645;SDS011;5371;49.782;9.932;2023-11-19T09:15:02;2.97;;;1.20;;
10645;SDS011;5371;49.782;9.932;2023-11-19T09:17:29;1.80;;;1.20;;
10645;SDS011;5371;49.782;9.932;2023-11-19T09:19:56;3.47;;;1.40;;
10645;SDS011;5371;49.782;9.932;2023-11-19T09:22:26;2.35;;;1.20;;
10645;SDS011;5371;49.782;9.932;2023-11-19T09:24:53;2.20;;;1.20;;
10645;SDS011;5371;49.782;9.932;2023-11-19T09:27:26;1.27;;;1.10;;
10645;SDS011;5371;49.782;9.932;2023-11-19T09:30:22;3.30;;;1.30;;
10645;SDS011;5371;49.782;9.932;2023-11-19T09:32:49;1.73;;;1.10;;
10645;SDS011;5371;49.782;9.932;2023-11-19T09:35:16;2.58;;;1.10;;
10645;SDS011;5371;49.782;9.932;2023-11-19T09:37:45;2.72;;;1.20;;
10645;SDS011;5371;49.782;9.932;2023-11-19T09:40:12;2.30;;;1.20;;
10645;SDS011;5371;49.782;9.932;2023-11-19T09:42:43;3.67;;;1.00;;
10645;SDS011;5371;49.782;9.932;2023-11-19T09:45:12;3.45;;;1.40;;
10645;SDS011;5371;49.782;9.932;2023-11-19T09:47:42;2.45;;;1.27;;
10645;SDS011;5371;49.782;9.932;2023-11-19T09:50:10;2.25;;;1.25;;
10645;SDS011;5371;49.782;9.932;2023-11-19T09:52:41;3.13;;;1.10;;
10645;SDS011;5371;49.782;9.932;2023-11-19T09:55:09;2.42;;;1.10;;
10645;SDS011;5371;49.782;9.932;2023-11-19T09:57:37;1.88;;;1.08;;
10645;SDS011;5371;49.782;9.932;2023-11-19T10:00:06;3.25;;;1.10;;
10645;SDS011;5371;49.782;9.932;2023-11-19T10:02:35;2.65;;;1.25;;
10645;SDS011;5371;49.782;9.932;2023-11-19T10:05:04;4.30;;;1.30;;
10645;SDS011;5371;49.782;9.932;2023-11-19T10:07:32;1.67;;;1.10;;
10645;SDS011;5371;49.782;9.932;2023-11-19T10:09:59;2.92;;;1.30;;
10645;SDS011;5371;49.782;9.932;2023-11-19T10:12:28;2.08;;;1.30;;
10645;SDS011;5371;49.782;9.932;2023-11-19T10:14:56;5.43;;;1.42;;
10645;SDS011;5371;49.782;9.932;2023-11-19T10:17:27;2.97;;;1.30;;
10645;SDS011;5371;49.782;9.932;2023-11-19T10:19:54;4.97;;;1.45;;
10645;SDS011;5371;49.782;9.932;2023-11-19T10:22:22;4.22;;;1.45;;
10645;SDS011;5371;49.782;9.932;2023-11-19T10:24:49;2.80;;;1.40;;
10645;SDS011;5371;49.782;9.932;2023-11-19T10:27:17;2.72;;;1.23;;
10645;SDS011;5371;49.782;9.932;2023-11-19T10:29:46;6.00;;;1.40;;
10645;SDS011;5371;49.782;9.932;2023-11-19T10:32:13;3.90;;;1.48;;
10645;SDS011;5371;49.782;9.932;2023-11-19T10:34:40;2.78;;;1.25;;
10645;SDS011;5371;49.782;9.932;2023-11-19T10:37:08;2.88;;;1.40;;
10645;SDS011;5371;49.782;9.932;2023-11-19T10:39:51;2.83;;;1.38;;
10645;SDS011;5371;49.782;9.932;2023-11-19T10:42:19;2.85;;;1.55;;
10645;SDS011;5371;49.782;9.932;2023-11-19T10:44:48;2.05;;;1.35;;
10645;SDS011;5371;49.782;9.932;2023-11-19T10:47:15;2.70;;;1.27;;
10645;SDS011;5371;49.782;9.932;2023-11-19T10:49:43;2.20;;;1.30;;
10645;SDS011;5371;49.782;9.932;2023-11-19T10:52:11;4.63;;;1.38;;
10645;SDS011;5371;49.782;9.932;2023-11-19T10:54:38;2.47;;;1.35;;
10645;SDS011;5371;49.782;9.932;2023-11-19T10:57:09;2.30;;;1.50;;
10645;SDS011;5371;49.782;9.932;2023-11-19T10:59:39;2.78;;;1.20;;
10645;SDS011;5371;49.782;9.932;2023-11-19T11:02:09;1.90;;;1.50;;
10645;SDS011;5371;49.782;9.932;2023-11-19T11:04:39;3.63;;;1.50;;
10645;SDS011;5371;49.782;9.932;2023-11-19T11:07:07;6.50;;;1.40;;
10645;SDS011;5371;49.782;9.932;2023-11-19T11:09:35;3.08;;;1.33;;
10645;SDS011;5371;49.782;9.932;2023-11-19T11:12:03;4.82;;;1.60;;
10645;SDS011;5371;49.782;9.932;2023-11-19T11:14:31;2.65;;;1.30;;
10645;SDS011;5371;49.782;9.932;2023-11-19T11:17:01;5.13;;;1.70;;
10645;SDS011;5371;49.782;9.932;2023-11-19T11:19:30;5.35;;;1.90;;
10645;SDS011;5371;49.782;9.932;2023-11-19T11:21:57;3.95;;;1.70;;
10645;SDS011;5371;49.782;9.932;2023-11-19T11:24:28;3.47;;;1.30;;
10645;SDS011;5371;49.782;9.932;2023-11-19T11:27:24;3.72;;;1.77;;
10645;SDS011;5371;49.782;9.932;2023-11-19T11:30:09;5.85;;;1.58;;
10645;SDS011;5371;49.782;9.932;2023-11-19T11:32:41;3.05;;;1.10;;
10645;SDS011;5371;49.782;9.932;2023-11-19T11:35:19;5.22;;;2.10;;
10645;SDS011;5371;49.782;9.932;2023-11-19T11:37:55;5.00;;;1.58;;
10645;SDS011;5371;49.782;9.932;2023-11-19T11:40:28;4.13;;;1.40;;
10645;SDS011;5371;49.782;9.932;2023-11-19T11:42:54;3.70;;;1.27;;
10645;SDS011;5371;49.782;9.932;2023-11-19T11:45:34;1.13;;;1.00;;
10645;SDS011;5371;49.782;9.932;2023-11-19T11:48:11;2.38;;;1.20;;
10645;SDS011;5371;49.782;9.932;2023-11-19T11:50:50;1.83;;;1.00;;
10645;SDS011;5371;49.782;9.932;2023-11-19T11:53:20;2.63;;;1.20;;
10645;SDS011;5371;49.782;9.932;2023-11-19T11:55:56;2.40;;;1.27;;
10645;SDS011;5371;49.782;9.932;2023-11-19T11:58:26;3.45;;;1.50;;
10645;SDS011;5371;49.782;9.932;2023-11-19T12:01:00;1.92;;;1.25;;
10645;SDS011;5371;49.782;9.932;2023-11-19T12:03:31;2.40;;;1.30;;
10645;SDS011;5371;49.782;9.932;2023-11-19T12:06:00;2.65;;;1.58;;
10645;SDS011;5371;49.782;9.932;2023-11-19T12:08:30;3.03;;;1.25;;
10645;SDS011;5371;49.782;9.932;2023-11-19T12:10:57;2.33;;;1.20;;
10645;SDS011;5371;49.782;9.932;2023-11-19T12:13:29;2.55;;;1.40;;
10645;SDS011;5371;49.782;9.932;2023-11-19T12:16:10;4.28;;;1.25;;
10645;SDS011;5371;49.782;9.932;2023-11-19T12:18:39;2.17;;;1.30;;
10645;SDS011;5371;49.782;9.932;2023-11-19T12:21:07;4.80;;;1.40;;
10645;SDS011;5371;49.782;9.932;2023-11-19T12:23:43;3.88;;;1.38;;
10645;SDS011;5371;49.782;9.932;2023-11-19T12:29:00;9.98;;;7.20;;
10645;SDS011;5371;49.782;9.932;2023-11-19T12:31:29;4.70;;;1.38;;
10645;SDS011;5371;49.782;9.932;2023-11-19T12:33:57;4.15;;;1.45;;
10645;SDS011;5371;49.782;9.932;2023-11-19T12:36:25;3.70;;;1.35;;
10645;SDS011;5371;49.782;9.932;2023-11-19T12:38:52;3.08;;;1.60;;
10645;SDS011;5371;49.782;9.932;2023-11-19T12:41:19;3.38;;;1.50;;
10645;SDS011;5371;49.782;9.932;2023-11-19T12:43:48;3.28;;;1.20;;
10645;SDS011;5371;49.782;9.932;2023-11-19T12:46:19;2.50;;;1.27;;
10645;SDS011;5371;49.782;9.932;2023-11-19T12:48:47;4.38;;;1.50;;
10645;SDS011;5371;49.782;9.932;2023-11-19T12:51:14;6.00;;;1.40;;
10645;SDS011;5371;49.782;9.932;2023-11-19T12:53:49;2.08;;;1.20;;
10645;SDS011;5371;49.782;9.932;2023-11-19T12:56:19;3.08;;;1.30;;
10645;SDS011;5371;49.782;9.932;2023-11-19T12:58:46;4.35;;;1.42;;
10645;SDS011;5371;49.782;9.932;2023-11-19T13:01:16;3.95;;;1.50;;
10645;SDS011;5371;49.782;9.932;2023-11-19T13:03:44;4.43;;;1.73;;
10645;SDS011;5371;49.782;9.932;2023-11-19T13:06:12;4.22;;;1.73;;
10645;SDS011;5371;49.782;9.932;2023-11-19T13:08:41;3.47;;;1.40;;
10645;SDS011;5371;49.782;9.932;2023-11-19T13:11:11;3.95;;;1.58;;
10645;SDS011;5371;49.782;9.932;2023-11-19T13:13:54;2.25;;;1.33;;
10645;SDS011;5371;49.782;9.932;2023-11-19T13:16:21;2.63;;;1.50;;
10645;SDS011;5371;49.782;9.932;2023-11-19T13:18:48;3.40;;;1.48;;
10645;SDS011;5371;49.782;9.932;2023-11-19T13:21:15;3.75;;;1.15;;
10645;SDS011;5371;49.782;9.932;2023-11-19T13:23:42;3.30;;;1.30;;
10645;SDS011;5371;49.782;9.932;2023-11-19T13:26:11;3.90;;;1.40;;
10645;SDS011;5371;49.782;9.932;2023-11-19T13:28:38;3.78;;;1.30;;
10645;SDS011;5371;49.782;9.932;2023-11-19T13:31:05;2.65;;;1.33;;
10645;SDS011;5371;49.782;9.932;2023-11-19T13:33:33;4.85;;;1.45;;
10645;SDS011;5371;49.782;9.932;2023-11-19T13:36:02;6.22;;;1.60;;
10645;SDS011;5371;49.782;9.932;2023-11-19T13:38:31;3.65;;;1.45;;
10645;SDS011;5371;49.782;9.932;2023-11-19T13:40:59;3.22;;;1.50;;
10645;SDS011;5371;49.782;9.932;2023-11-19T13:43:28;2.63;;;1.30;;
10645;SDS011;5371;49.782;9.932;2023-11-19T13:45:56;5.68;;;1.83;;
10645;SDS011;5371;49.782;9.932;2023-11-19T13:48:23;9.25;;;1.40;;
10645;SDS011;5371;49.782;9.932;2023-11-19T13:50:52;4.85;;;1.27;;
10645;SDS011;5371;49.782;9.932;2023-11-19T13:53:18;4.63;;;1.20;;
10645;SDS011;5371;49.782;9.932;2023-11-19T13:55:45;4.25;;;1.30;;
10645;SDS011;5371;49.782;9.932;2023-11-19T13:58:13;3.63;;;1.30;;
10645;SDS011;5371;49.782;9.932;2023-11-19T14:00:41;4.28;;;1.17;;
10645;SDS011;5371;49.782;9.932;2023-11-19T14:03:08;2.97;;;1.30;;
10645;SDS011;5371;49.782;9.932;2023-11-19T14:05:36;8.73;;;1.60;;
10645;SDS011;5371;49.782;9.932;2023-11-19T14:08:06;4.97;;;1.40;;
10645;SDS011;5371;49.782;9.932;2023-11-19T14:10:37;2.97;;;1.50;;
10645;SDS011;5371;49.782;9.932;2023-11-19T14:13:07;3.63;;;1.20;;
10645;SDS011;5371;49.782;9.932;2023-11-19T14:15:34;2.80;;;1.20;;
10645;SDS011;5371;49.782;9.932;2023-11-19T14:18:03;4.15;;;1.35;;
10645;SDS011;5371;49.782;9.932;2023-11-19T14:20:32;2.40;;;1.25;;
10645;SDS011;5371;49.782;9.932;2023-11-19T14:23:01;1.92;;;1.20;;
10645;SDS011;5371;49.782;9.932;2023-11-19T14:25:28;4.68;;;1.38;;
10645;SDS011;5371;49.782;9.932;2023-11-19T14:27:55;3.70;;;1.40;;
10645;SDS011;5371;49.782;9.932;2023-11-19T14:30:22;5.50;;;1.40;;
10645;SDS011;5371;49.782;9.932;2023-11-19T14:32:49;7.45;;;1.50;;
10645;SDS011;5371;49.782;9.932;2023-11-19T14:35:18;4.72;;;1.50;;
10645;SDS011;5371;49.782;9.932;2023-11-19T14:37:45;4.05;;;1.60;;
10645;SDS011;5371;49.782;9.932;2023-11-19T14:40:12;4.05;;;1.25;;
10645;SDS011;5371;49.782;9.932;2023-11-19T14:42:39;4.35;;;1.30;;
10645;SDS011;5371;49.782;9.932;2023-11-19T14:45:06;2.83;;;1.33;;
10645;SDS011;5371;49.782;9.932;2023-11-19T14:47:37;4.30;;;1.50;;
10645;SDS011;5371;49.782;9.932;2023-11-19T14:50:07;3.75;;;1.42;;
10645;SDS011;5371;49.782;9.932;2023-11-19T14:52:36;6.45;;;1.55;;
10645;SDS011;5371;49.782;9.932;2023-11-19T14:55:03;3.45;;;1.40;;
10645;SDS011;5371;49.782;9.932;2023-11-19T14:57:31;5.10;;;1.70;;
10645;SDS011;5371;49.782;9.932;2023-11-19T14:59:58;3.35;;;1.58;;
10645;SDS011;5371;49.782;9.932;2023-11-19T15:02:25;4.43;;;1.33;;
10645;SDS011;5371;49.782;9.932;2023-11-19T15:04:51;3.60;;;1.40;;
10645;SDS011;5371;49.782;9.932;2023-11-19T15:07:18;6.03;;;1.40;;
10645;SDS011;5371;49.782;9.932;2023-11-19T15:09:48;3.90;;;1.42;;
10645;SDS011;5371;49.782;9.932;2023-11-19T15:12:15;4.50;;;1.20;;
10645;SDS011;5371;49.782;9.932;2023-11-19T15:14:42;3.85;;;1.30;;